sensor_id;sensor_type;location;lat;lon;timestamp;P1;durP1;ratioP1;P2;durP2;ratioP2
42246;SDS011;27913;42.722;23.268;2023-12-20T00:00:57;39.08;;;15.90;;
42246;SDS011;27913;42.722;23.268;2023-12-20T00:03:23;35.13;;;13.90;;
42246;SDS011;27913;42.722;23.268;2023-12-20T00:05:49;37.67;;;13.52;;
42246;SDS011;27913;42.722;23.268;2023-12-20T00:08:15;31.92;;;11.38;;
42246;SDS011;27913;42.722;23.268;2023-12-20T00:10:41;35.15;;;13.45;;
42246;SDS011;27913;42.722;23.268;2023-12-20T00:13:07;40.55;;;16.23;;
42246;SDS011;27913;42.722;23.268;2023-12-20T00:15:33;45.83;;;18.27;;
42246;SDS011;27913;42.722;23.268;2023-12-20T00:17:59;30.40;;;12.88;;
42246;SDS011;27913;42.722;23.268;2023-12-20T00:20:24;32.13;;;12.20;;
42246;SDS011;27913;42.722;23.268;2023-12-20T00:22:50;32.67;;;12.68;;
42246;SDS011;27913;42.722;23.268;2023-12-20T00:25:16;33.90;;;13.07;;
42246;SDS011;27913;42.722;23.268;2023-12-20T00:27:41;38.90;;;14.13;;
42246;SDS011;27913;42.722;23.268;2023-12-20T00:30:07;31.02;;;12.50;;
42246;SDS011;27913;42.722;23.268;2023-12-20T00:32:34;27.35;;;11.75;;
42246;SDS011;27913;42.722;23.268;2023-12-20T00:35:00;24.50;;;9.70;;
42246;SDS011;27913;42.722;23.268;2023-12-20T00:37:26;29.25;;;10.60;;
42246;SDS011;27913;42.722;23.268;2023-12-20T00:39:52;29.23;;;11.73;;
42246;SDS011;27913;42.722;23.268;2023-12-20T00:42:17;35.83;;;13.90;;
42246;SDS011;27913;42.722;23.268;2023-12-20T00:44:43;40.83;;;16.75;;
42246;SDS011;27913;42.722;23.268;2023-12-20T00:47:08;40.53;;;17.25;;
42246;SDS011;27913;42.722;23.268;2023-12-20T00:49:34;50.10;;;18.98;;
42246;SDS011;27913;42.722;23.268;2023-12-20T00:51:59;58.97;;;20.52;;
42246;SDS011;27913;42.722;23.268;2023-12-20T00:54:25;58.10;;;22.70;;
42246;SDS011;27913;42.722;23.268;2023-12-20T00:56:51;63.92;;;21.05;;
42246;SDS011;27913;42.722;23.268;2023-12-20T00:59:16;58.63;;;20.63;;
42246;SDS011;27913;42.722;23.268;2023-12-20T01:04:18;49.10;;;18.10;;
42246;SDS011;27913;42.722;23.268;2023-12-20T01:06:45;54.67;;;19.95;;
42246;SDS011;27913;42.722;23.268;2023-12-20T01:09:10;47.00;;;18.35;;
42246;SDS011;27913;42.722;23.268;2023-12-20T01:11:36;51.15;;;18.45;;
42246;SDS011;27913;42.722;23.268;2023-12-20T01:14:02;42.60;;;17.58;;
42246;SDS011;27913;42.722;23.268;2023-12-20T01:16:27;43.50;;;16.70;;
42246;SDS011;27913;42.722;23.268;2023-12-20T01:18:53;38.08;;;15.95;;
42246;SDS011;27913;42.722;23.268;2023-12-20T01:21:19;44.80;;;16.98;;
42246;SDS011;27913;42.722;23.268;2023-12-20T01:23:44;45.35;;;17.02;;
42246;SDS011;27913;42.722;23.268;2023-12-20T01:26:10;47.38;;;15.55;;
42246;SDS011;27913;42.722;23.268;2023-12-20T01:28:36;42.35;;;15.88;;
42246;SDS011;27913;42.722;23.268;2023-12-20T01:31:02;45.58;;;17.30;;
42246;SDS011;27913;42.722;23.268;2023-12-20T01:33:29;38.47;;;15.52;;
42246;SDS011;27913;42.722;23.268;2023-12-20T01:35:54;46.85;;;18.27;;
42246;SDS011;27913;42.722;23.268;2023-12-20T01:38:20;42.45;;;18.50;;
42246;SDS011;27913;42.722;23.268;2023-12-20T01:40:46;43.30;;;17.13;;
42246;SDS011;27913;42.722;23.268;2023-12-20T01:43:11;51.05;;;19.33;;
42246;SDS011;27913;42.722;23.268;2023-12-20T01:45:37;56.97;;;18.88;;
42246;SDS011;27913;42.722;23.268;2023-12-20T01:48:03;52.95;;;20.50;;
42246;SDS011;27913;42.722;23.268;2023-12-20T01:50:30;36.97;;;16.30;;
42246;SDS011;27913;42.722;23.268;2023-12-20T01:52:57;41.55;;;17.85;;
42246;SDS011;27913;42.722;23.268;2023-12-20T01:55:27;41.92;;;17.15;;
42246;SDS011;27913;42.722;23.268;2023-12-20T01:57:54;49.75;;;16.90;;
42246;SDS011;27913;42.722;23.268;2023-12-20T02:00:21;39.22;;;16.30;;
42246;SDS011;27913;42.722;23.268;2023-12-20T02:02:48;38.80;;;16.05;;
42246;SDS011;27913;42.722;23.268;2023-12-20T02:05:17;48.50;;;17.98;;
42246;SDS011;27913;42.722;23.268;2023-12-20T02:07:43;44.80;;;17.17;;
42246;SDS011;27913;42.722;23.268;2023-12-20T02:10:09;47.38;;;15.50;;
42246;SDS011;27913;42.722;23.268;2023-12-20T02:12:35;49.78;;;17.55;;
42246;SDS011;27913;42.722;23.268;2023-12-20T02:15:00;37.10;;;14.73;;
42246;SDS011;27913;42.722;23.268;2023-12-20T02:17:27;41.92;;;15.80;;
42246;SDS011;27913;42.722;23.268;2023-12-20T02:19:53;46.45;;;17.42;;
42246;SDS011;27913;42.722;23.268;2023-12-20T02:22:18;47.22;;;17.85;;
42246;SDS011;27913;42.722;23.268;2023-12-20T02:24:44;52.38;;;18.58;;
42246;SDS011;27913;42.722;23.268;2023-12-20T02:27:10;35.65;;;15.07;;
42246;SDS011;27913;42.722;23.268;2023-12-20T02:29:36;41.75;;;14.98;;
42246;SDS011;27913;42.722;23.268;2023-12-20T02:32:02;34.05;;;13.52;;
42246;SDS011;27913;42.722;23.268;2023-12-20T02:34:28;31.23;;;12.60;;
42246;SDS011;27913;42.722;23.268;2023-12-20T02:36:54;46.78;;;17.45;;
42246;SDS011;27913;42.722;23.268;2023-12-20T02:39:20;35.42;;;14.52;;
42246;SDS011;27913;42.722;23.268;2023-12-20T02:41:47;44.00;;;16.67;;
42246;SDS011;27913;42.722;23.268;2023-12-20T02:44:13;48.38;;;19.70;;
42246;SDS011;27913;42.722;23.268;2023-12-20T02:46:39;47.97;;;20.25;;
42246;SDS011;27913;42.722;23.268;2023-12-20T02:49:05;50.67;;;20.02;;
42246;SDS011;27913;42.722;23.268;2023-12-20T02:51:31;53.63;;;19.83;;
42246;SDS011;27913;42.722;23.268;2023-12-20T02:53:57;48.42;;;19.33;;
42246;SDS011;27913;42.722;23.268;2023-12-20T02:56:23;53.78;;;19.88;;
42246;SDS011;27913;42.722;23.268;2023-12-20T02:58:48;53.03;;;18.35;;
42246;SDS011;27913;42.722;23.268;2023-12-20T03:01:14;48.15;;;17.33;;
42246;SDS011;27913;42.722;23.268;2023-12-20T03:03:40;46.58;;;16.67;;
42246;SDS011;27913;42.722;23.268;2023-12-20T03:06:05;41.92;;;14.98;;
42246;SDS011;27913;42.722;23.268;2023-12-20T03:08:31;27.10;;;10.48;;
42246;SDS011;27913;42.722;23.268;2023-12-20T03:10:58;34.75;;;12.55;;
42246;SDS011;27913;42.722;23.268;2023-12-20T03:13:24;33.00;;;12.80;;
42246;SDS011;27913;42.722;23.268;2023-12-20T03:15:50;36.25;;;11.23;;
42246;SDS011;27913;42.722;23.268;2023-12-20T03:18:15;32.88;;;11.82;;
42246;SDS011;27913;42.722;23.268;2023-12-20T03:20:41;29.10;;;11.82;;
42246;SDS011;27913;42.722;23.268;2023-12-20T03:23:07;33.10;;;12.68;;
42246;SDS011;27913;42.722;23.268;2023-12-20T03:25:33;28.02;;;10.82;;
42246;SDS011;27913;42.722;23.268;2023-12-20T03:27:59;36.90;;;13.73;;
42246;SDS011;27913;42.722;23.268;2023-12-20T03:30:24;29.98;;;12.32;;
42246;SDS011;27913;42.722;23.268;2023-12-20T03:32:50;28.25;;;10.13;;
42246;SDS011;27913;42.722;23.268;2023-12-20T03:35:16;23.05;;;10.35;;
42246;SDS011;27913;42.722;23.268;2023-12-20T03:37:42;34.53;;;13.77;;
42246;SDS011;27913;42.722;23.268;2023-12-20T03:40:07;36.13;;;14.13;;
42246;SDS011;27913;42.722;23.268;2023-12-20T03:42:33;23.08;;;12.02;;
42246;SDS011;27913;42.722;23.268;2023-12-20T03:44:59;25.38;;;10.55;;
42246;SDS011;27913;42.722;23.268;2023-12-20T03:47:25;29.88;;;10.65;;
42246;SDS011;27913;42.722;23.268;2023-12-20T03:49:50;31.52;;;11.32;;
42246;SDS011;27913;42.722;23.268;2023-12-20T03:52:16;28.50;;;11.32;;
42246;SDS011;27913;42.722;23.268;2023-12-20T03:54:42;26.45;;;9.73;;
42246;SDS011;27913;42.722;23.268;2023-12-20T03:57:07;26.15;;;9.40;;
42246;SDS011;27913;42.722;23.268;2023-12-20T03:59:36;22.38;;;9.48;;
42246;SDS011;27913;42.722;23.268;2023-12-20T04:02:02;21.35;;;9.88;;
42246;SDS011;27913;42.722;23.268;2023-12-20T04:04:29;29.92;;;8.95;;
42246;SDS011;27913;42.722;23.268;2023-12-20T04:06:55;21.15;;;9.10;;
42246;SDS011;27913;42.722;23.268;2023-12-20T04:09:20;20.17;;;9.43;;
42246;SDS011;27913;42.722;23.268;2023-12-20T04:11:46;22.40;;;9.70;;
42246;SDS011;27913;42.722;23.268;2023-12-20T04:14:11;29.40;;;9.65;;
42246;SDS011;27913;42.722;23.268;2023-12-20T04:16:37;26.17;;;10.93;;
42246;SDS011;27913;42.722;23.268;2023-12-20T04:19:04;29.13;;;10.57;;
42246;SDS011;27913;42.722;23.268;2023-12-20T04:21:30;29.42;;;11.75;;
42246;SDS011;27913;42.722;23.268;2023-12-20T04:23:55;28.98;;;10.88;;
42246;SDS011;27913;42.722;23.268;2023-12-20T04:26:21;28.30;;;11.52;;
42246;SDS011;27913;42.722;23.268;2023-12-20T04:28:47;34.55;;;11.30;;
42246;SDS011;27913;42.722;23.268;2023-12-20T04:31:13;26.23;;;11.13;;
42246;SDS011;27913;42.722;23.268;2023-12-20T04:33:38;23.90;;;10.70;;
42246;SDS011;27913;42.722;23.268;2023-12-20T04:36:04;23.10;;;9.55;;
42246;SDS011;27913;42.722;23.268;2023-12-20T04:38:30;24.17;;;10.45;;
42246;SDS011;27913;42.722;23.268;2023-12-20T04:40:55;31.92;;;11.40;;
42246;SDS011;27913;42.722;23.268;2023-12-20T04:43:21;19.05;;;8.30;;
42246;SDS011;27913;42.722;23.268;2023-12-20T04:45:47;25.67;;;10.88;;
42246;SDS011;27913;42.722;23.268;2023-12-20T04:48:13;27.10;;;11.55;;
42246;SDS011;27913;42.722;23.268;2023-12-20T04:50:38;25.77;;;9.35;;
42246;SDS011;27913;42.722;23.268;2023-12-20T04:53:04;18.20;;;8.00;;
42246;SDS011;27913;42.722;23.268;2023-12-20T04:55:30;22.80;;;9.27;;
42246;SDS011;27913;42.722;23.268;2023-12-20T04:57:55;18.92;;;9.65;;
42246;SDS011;27913;42.722;23.268;2023-12-20T05:00:21;22.27;;;8.25;;
42246;SDS011;27913;42.722;23.268;2023-12-20T05:02:47;23.38;;;7.43;;
42246;SDS011;27913;42.722;23.268;2023-12-20T05:05:15;29.05;;;9.50;;
42246;SDS011;27913;42.722;23.268;2023-12-20T05:07:43;28.67;;;9.68;;
42246;SDS011;27913;42.722;23.268;2023-12-20T05:10:09;22.73;;;10.23;;
42246;SDS011;27913;42.722;23.268;2023-12-20T05:12:34;23.27;;;9.27;;
42246;SDS011;27913;42.722;23.268;2023-12-20T05:15:00;23.85;;;9.70;;
42246;SDS011;27913;42.722;23.268;2023-12-20T05:17:26;22.05;;;8.77;;
42246;SDS011;27913;42.722;23.268;2023-12-20T05:19:51;31.20;;;10.93;;
42246;SDS011;27913;42.722;23.268;2023-12-20T05:22:18;20.77;;;8.85;;
42246;SDS011;27913;42.722;23.268;2023-12-20T05:24:45;22.80;;;9.10;;
42246;SDS011;27913;42.722;23.268;2023-12-20T05:27:10;29.65;;;11.32;;
42246;SDS011;27913;42.722;23.268;2023-12-20T05:29:36;25.30;;;10.75;;
42246;SDS011;27913;42.722;23.268;2023-12-20T05:32:02;35.13;;;12.45;;
42246;SDS011;27913;42.722;23.268;2023-12-20T05:34:30;21.92;;;9.73;;
42246;SDS011;27913;42.722;23.268;2023-12-20T05:36:56;20.33;;;8.10;;
42246;SDS011;27913;42.722;23.268;2023-12-20T05:39:22;29.20;;;10.98;;
42246;SDS011;27913;42.722;23.268;2023-12-20T05:41:48;35.50;;;14.63;;
42246;SDS011;27913;42.722;23.268;2023-12-20T05:44:14;40.97;;;15.40;;
42246;SDS011;27913;42.722;23.268;2023-12-20T05:46:39;39.72;;;12.27;;
42246;SDS011;27913;42.722;23.268;2023-12-20T05:49:05;26.10;;;9.93;;
42246;SDS011;27913;42.722;23.268;2023-12-20T05:51:31;25.10;;;10.13;;
42246;SDS011;27913;42.722;23.268;2023-12-20T05:53:57;25.67;;;10.30;;
42246;SDS011;27913;42.722;23.268;2023-12-20T05:56:23;27.77;;;9.93;;
42246;SDS011;27913;42.722;23.268;2023-12-20T05:58:49;24.15;;;10.10;;
42246;SDS011;27913;42.722;23.268;2023-12-20T06:01:15;31.83;;;11.48;;
42246;SDS011;27913;42.722;23.268;2023-12-20T06:03:42;26.83;;;11.20;;
42246;SDS011;27913;42.722;23.268;2023-12-20T06:06:08;28.73;;;10.95;;
42246;SDS011;27913;42.722;23.268;2023-12-20T06:08:34;25.30;;;9.93;;
42246;SDS011;27913;42.722;23.268;2023-12-20T06:10:59;37.60;;;13.38;;
42246;SDS011;27913;42.722;23.268;2023-12-20T06:13:25;45.15;;;13.85;;
42246;SDS011;27913;42.722;23.268;2023-12-20T06:15:51;32.63;;;12.73;;
42246;SDS011;27913;42.722;23.268;2023-12-20T06:18:17;29.05;;;11.88;;
42246;SDS011;27913;42.722;23.268;2023-12-20T06:20:43;32.13;;;11.65;;
42246;SDS011;27913;42.722;23.268;2023-12-20T06:23:08;35.20;;;12.90;;
42246;SDS011;27913;42.722;23.268;2023-12-20T06:25:34;27.25;;;10.98;;
42246;SDS011;27913;42.722;23.268;2023-12-20T06:27:59;24.75;;;9.27;;
42246;SDS011;27913;42.722;23.268;2023-12-20T06:30:25;35.40;;;12.23;;
42246;SDS011;27913;42.722;23.268;2023-12-20T06:32:52;28.52;;;12.05;;
42246;SDS011;27913;42.722;23.268;2023-12-20T06:35:18;37.40;;;13.60;;
42246;SDS011;27913;42.722;23.268;2023-12-20T06:37:44;30.73;;;10.05;;
42246;SDS011;27913;42.722;23.268;2023-12-20T06:40:10;38.72;;;14.43;;
42246;SDS011;27913;42.722;23.268;2023-12-20T06:42:36;29.77;;;11.75;;
42246;SDS011;27913;42.722;23.268;2023-12-20T06:45:02;34.20;;;12.32;;
42246;SDS011;27913;42.722;23.268;2023-12-20T06:47:28;26.17;;;9.95;;
42246;SDS011;27913;42.722;23.268;2023-12-20T06:49:54;31.80;;;11.15;;
42246;SDS011;27913;42.722;23.268;2023-12-20T06:52:19;35.63;;;10.55;;
42246;SDS011;27913;42.722;23.268;2023-12-20T06:54:45;40.70;;;13.98;;
42246;SDS011;27913;42.722;23.268;2023-12-20T06:57:10;40.00;;;12.77;;
42246;SDS011;27913;42.722;23.268;2023-12-20T06:59:40;34.90;;;11.75;;
42246;SDS011;27913;42.722;23.268;2023-12-20T07:02:06;33.67;;;11.30;;
42246;SDS011;27913;42.722;23.268;2023-12-20T07:04:31;37.85;;;11.55;;
42246;SDS011;27913;42.722;23.268;2023-12-20T07:06:57;37.28;;;12.52;;
42246;SDS011;27913;42.722;23.268;2023-12-20T07:09:25;39.95;;;13.48;;
42246;SDS011;27913;42.722;23.268;2023-12-20T07:11:52;33.40;;;12.13;;
42246;SDS011;27913;42.722;23.268;2023-12-20T07:14:18;40.45;;;13.48;;
42246;SDS011;27913;42.722;23.268;2023-12-20T07:16:43;41.35;;;13.73;;
42246;SDS011;27913;42.722;23.268;2023-12-20T07:19:09;41.10;;;15.80;;
42246;SDS011;27913;42.722;23.268;2023-12-20T07:21:35;43.45;;;16.52;;
42246;SDS011;27913;42.722;23.268;2023-12-20T07:24:00;57.60;;;17.65;;
42246;SDS011;27913;42.722;23.268;2023-12-20T07:26:26;36.08;;;12.63;;
42246;SDS011;27913;42.722;23.268;2023-12-20T07:28:51;31.67;;;10.43;;
42246;SDS011;27913;42.722;23.268;2023-12-20T07:31:17;29.02;;;8.73;;
42246;SDS011;27913;42.722;23.268;2023-12-20T07:33:42;21.92;;;7.65;;
42246;SDS011;27913;42.722;23.268;2023-12-20T07:36:08;27.52;;;9.10;;
42246;SDS011;27913;42.722;23.268;2023-12-20T07:38:34;25.88;;;8.73;;
42246;SDS011;27913;42.722;23.268;2023-12-20T07:41:00;32.95;;;11.45;;
42246;SDS011;27913;42.722;23.268;2023-12-20T07:43:25;28.77;;;9.15;;
42246;SDS011;27913;42.722;23.268;2023-12-20T07:45:51;23.98;;;8.48;;
42246;SDS011;27913;42.722;23.268;2023-12-20T07:48:16;23.42;;;7.53;;
42246;SDS011;27913;42.722;23.268;2023-12-20T07:50:42;33.38;;;12.82;;
42246;SDS011;27913;42.722;23.268;2023-12-20T07:53:08;22.08;;;8.30;;
42246;SDS011;27913;42.722;23.268;2023-12-20T07:55:33;27.88;;;9.80;;
42246;SDS011;27913;42.722;23.268;2023-12-20T07:57:59;33.40;;;12.50;;
42246;SDS011;27913;42.722;23.268;2023-12-20T08:00:25;36.33;;;12.35;;
42246;SDS011;27913;42.722;23.268;2023-12-20T08:02:51;30.27;;;12.27;;
42246;SDS011;27913;42.722;23.268;2023-12-20T08:05:17;29.98;;;10.52;;
42246;SDS011;27913;42.722;23.268;2023-12-20T08:07:42;34.05;;;12.50;;
42246;SDS011;27913;42.722;23.268;2023-12-20T08:10:08;36.25;;;11.32;;
42246;SDS011;27913;42.722;23.268;2023-12-20T08:12:34;43.30;;;14.05;;
42246;SDS011;27913;42.722;23.268;2023-12-20T08:15:00;39.40;;;13.80;;
42246;SDS011;27913;42.722;23.268;2023-12-20T08:17:26;46.03;;;14.02;;
42246;SDS011;27913;42.722;23.268;2023-12-20T08:19:52;41.13;;;15.07;;
42246;SDS011;27913;42.722;23.268;2023-12-20T08:22:17;41.50;;;15.50;;
42246;SDS011;27913;42.722;23.268;2023-12-20T08:24:43;27.92;;;11.63;;
42246;SDS011;27913;42.722;23.268;2023-12-20T08:27:08;36.42;;;15.05;;
42246;SDS011;27913;42.722;23.268;2023-12-20T08:29:34;29.35;;;11.88;;
42246;SDS011;27913;42.722;23.268;2023-12-20T08:32:01;35.35;;;13.55;;
42246;SDS011;27913;42.722;23.268;2023-12-20T08:34:27;32.30;;;11.60;;
42246;SDS011;27913;42.722;23.268;2023-12-20T08:36:53;33.88;;;14.07;;
42246;SDS011;27913;42.722;23.268;2023-12-20T08:39:18;35.70;;;12.40;;
42246;SDS011;27913;42.722;23.268;2023-12-20T08:41:44;39.63;;;14.75;;
42246;SDS011;27913;42.722;23.268;2023-12-20T08:44:10;101.68;;;34.83;;
42246;SDS011;27913;42.722;23.268;2023-12-20T08:46:35;53.00;;;17.42;;
42246;SDS011;27913;42.722;23.268;2023-12-20T08:49:01;45.10;;;17.00;;
42246;SDS011;27913;42.722;23.268;2023-12-20T08:51:27;53.15;;;18.52;;
42246;SDS011;27913;42.722;23.268;2023-12-20T08:53:54;48.03;;;17.17;;
42246;SDS011;27913;42.722;23.268;2023-12-20T08:56:19;56.90;;;21.33;;
42246;SDS011;27913;42.722;23.268;2023-12-20T08:58:45;51.15;;;17.20;;
42246;SDS011;27913;42.722;23.268;2023-12-20T09:01:12;59.90;;;19.23;;
42246;SDS011;27913;42.722;23.268;2023-12-20T09:03:38;56.35;;;18.80;;
42246;SDS011;27913;42.722;23.268;2023-12-20T09:06:05;65.93;;;20.70;;
42246;SDS011;27913;42.722;23.268;2023-12-20T09:08:31;77.55;;;23.58;;
42246;SDS011;27913;42.722;23.268;2023-12-20T09:10:56;70.40;;;22.95;;
42246;SDS011;27913;42.722;23.268;2023-12-20T09:13:22;68.50;;;22.90;;
42246;SDS011;27913;42.722;23.268;2023-12-20T09:18:19;45.13;;;16.45;;
42246;SDS011;27913;42.722;23.268;2023-12-20T09:20:44;63.10;;;22.55;;
42246;SDS011;27913;42.722;23.268;2023-12-20T09:23:10;75.30;;;25.10;;
42246;SDS011;27913;42.722;23.268;2023-12-20T09:25:35;68.53;;;24.52;;
42246;SDS011;27913;42.722;23.268;2023-12-20T09:28:01;71.15;;;26.05;;
42246;SDS011;27913;42.722;23.268;2023-12-20T09:30:27;80.47;;;28.48;;
42246;SDS011;27913;42.722;23.268;2023-12-20T09:32:52;106.68;;;35.28;;
42246;SDS011;27913;42.722;23.268;2023-12-20T09:35:18;90.90;;;30.40;;
42246;SDS011;27913;42.722;23.268;2023-12-20T09:37:43;112.45;;;37.50;;
42246;SDS011;27913;42.722;23.268;2023-12-20T09:40:10;181.00;;;54.67;;
42246;SDS011;27913;42.722;23.268;2023-12-20T09:45:23;84.32;;;28.80;;
42246;SDS011;27913;42.722;23.268;2023-12-20T09:47:52;64.07;;;21.52;;
42246;SDS011;27913;42.722;23.268;2023-12-20T09:50:20;82.85;;;30.73;;
42246;SDS011;27913;42.722;23.268;2023-12-20T09:52:50;73.47;;;22.02;;
42246;SDS011;27913;42.722;23.268;2023-12-20T09:55:17;68.22;;;26.30;;
42246;SDS011;27913;42.722;23.268;2023-12-20T09:57:44;73.10;;;25.70;;
42246;SDS011;27913;42.722;23.268;2023-12-20T10:00:10;86.78;;;30.33;;
42246;SDS011;27913;42.722;23.268;2023-12-20T10:02:37;81.22;;;27.30;;
42246;SDS011;27913;42.722;23.268;2023-12-20T10:05:07;96.68;;;30.58;;
42246;SDS011;27913;42.722;23.268;2023-12-20T10:07:36;88.40;;;27.55;;
42246;SDS011;27913;42.722;23.268;2023-12-20T10:10:01;83.78;;;27.20;;
42246;SDS011;27913;42.722;23.268;2023-12-20T10:12:27;98.75;;;31.15;;
42246;SDS011;27913;42.722;23.268;2023-12-20T10:14:53;90.50;;;30.90;;
42246;SDS011;27913;42.722;23.268;2023-12-20T10:17:19;70.07;;;23.55;;
42246;SDS011;27913;42.722;23.268;2023-12-20T10:19:46;85.57;;;29.02;;
42246;SDS011;27913;42.722;23.268;2023-12-20T10:22:12;81.82;;;30.23;;
42246;SDS011;27913;42.722;23.268;2023-12-20T10:24:38;91.05;;;33.38;;
42246;SDS011;27913;42.722;23.268;2023-12-20T10:27:06;76.47;;;28.67;;
42246;SDS011;27913;42.722;23.268;2023-12-20T10:29:33;90.97;;;32.60;;
42246;SDS011;27913;42.722;23.268;2023-12-20T10:34:53;91.68;;;28.60;;
42246;SDS011;27913;42.722;23.268;2023-12-20T10:37:19;67.75;;;22.60;;
42246;SDS011;27913;42.722;23.268;2023-12-20T10:39:49;73.05;;;23.58;;
42246;SDS011;27913;42.722;23.268;2023-12-20T10:42:22;80.78;;;25.50;;
42246;SDS011;27913;42.722;23.268;2023-12-20T10:44:51;80.53;;;27.60;;
42246;SDS011;27913;42.722;23.268;2023-12-20T10:47:19;58.97;;;18.77;;
42246;SDS011;27913;42.722;23.268;2023-12-20T10:49:46;71.45;;;26.13;;
42246;SDS011;27913;42.722;23.268;2023-12-20T10:52:12;77.32;;;25.23;;
42246;SDS011;27913;42.722;23.268;2023-12-20T10:54:38;69.80;;;23.63;;
42246;SDS011;27913;42.722;23.268;2023-12-20T10:57:07;66.97;;;23.15;;
42246;SDS011;27913;42.722;23.268;2023-12-20T10:59:33;79.85;;;27.63;;
42246;SDS011;27913;42.722;23.268;2023-12-20T11:02:03;55.72;;;19.30;;
42246;SDS011;27913;42.722;23.268;2023-12-20T11:04:37;89.10;;;30.60;;
42246;SDS011;27913;42.722;23.268;2023-12-20T11:13:10;86.55;;;30.10;;
42246;SDS011;27913;42.722;23.268;2023-12-20T11:15:42;62.90;;;22.53;;
42246;SDS011;27913;42.722;23.268;2023-12-20T11:18:08;78.63;;;27.45;;
42246;SDS011;27913;42.722;23.268;2023-12-20T11:20:38;92.03;;;32.75;;
42246;SDS011;27913;42.722;23.268;2023-12-20T11:23:05;93.35;;;33.17;;
42246;SDS011;27913;42.722;23.268;2023-12-20T11:28:23;108.18;;;35.13;;
42246;SDS011;27913;42.722;23.268;2023-12-20T11:30:51;94.32;;;36.17;;
42246;SDS011;27913;42.722;23.268;2023-12-20T11:35:50;89.05;;;30.55;;
42246;SDS011;27913;42.722;23.268;2023-12-20T11:38:16;90.28;;;30.75;;
42246;SDS011;27913;42.722;23.268;2023-12-20T11:40:48;82.32;;;29.88;;
42246;SDS011;27913;42.722;23.268;2023-12-20T11:46:19;92.40;;;30.15;;
42246;SDS011;27913;42.722;23.268;2023-12-20T11:48:44;67.63;;;22.38;;
42246;SDS011;27913;42.722;23.268;2023-12-20T11:51:13;87.07;;;25.63;;
42246;SDS011;27913;42.722;23.268;2023-12-20T11:53:39;68.50;;;25.33;;
42246;SDS011;27913;42.722;23.268;2023-12-20T11:56:06;79.63;;;27.52;;
42246;SDS011;27913;42.722;23.268;2023-12-20T11:58:32;32.92;;;14.23;;
42246;SDS011;27913;42.722;23.268;2023-12-20T12:00:58;67.55;;;22.08;;
42246;SDS011;27913;42.722;23.268;2023-12-20T12:03:24;60.75;;;21.55;;
42246;SDS011;27913;42.722;23.268;2023-12-20T12:05:50;74.05;;;30.52;;
42246;SDS011;27913;42.722;23.268;2023-12-20T12:08:16;72.25;;;26.95;;
42246;SDS011;27913;42.722;23.268;2023-12-20T12:10:43;77.47;;;29.25;;
42246;SDS011;27913;42.722;23.268;2023-12-20T12:13:09;87.03;;;31.50;;
42246;SDS011;27913;42.722;23.268;2023-12-20T12:15:36;96.18;;;33.05;;
42246;SDS011;27913;42.722;23.268;2023-12-20T12:18:02;94.53;;;34.45;;
42246;SDS011;27913;42.722;23.268;2023-12-20T12:20:28;102.65;;;34.80;;
42246;SDS011;27913;42.722;23.268;2023-12-20T12:23:01;103.70;;;36.83;;
42246;SDS011;27913;42.722;23.268;2023-12-20T12:25:31;107.53;;;41.70;;
42246;SDS011;27913;42.722;23.268;2023-12-20T12:27:58;103.43;;;37.80;;
42246;SDS011;27913;42.722;23.268;2023-12-20T12:30:24;95.13;;;32.80;;
42246;SDS011;27913;42.722;23.268;2023-12-20T12:32:50;113.80;;;37.25;;
42246;SDS011;27913;42.722;23.268;2023-12-20T12:35:17;71.97;;;27.30;;
42246;SDS011;27913;42.722;23.268;2023-12-20T12:37:44;65.88;;;23.75;;
42246;SDS011;27913;42.722;23.268;2023-12-20T12:40:11;105.53;;;37.95;;
42246;SDS011;27913;42.722;23.268;2023-12-20T12:42:38;102.35;;;31.83;;
42246;SDS011;27913;42.722;23.268;2023-12-20T12:45:04;99.18;;;37.25;;
42246;SDS011;27913;42.722;23.268;2023-12-20T12:47:30;90.50;;;35.50;;
42246;SDS011;27913;42.722;23.268;2023-12-20T12:49:56;113.95;;;39.08;;
42246;SDS011;27913;42.722;23.268;2023-12-20T12:52:22;76.50;;;28.90;;
42246;SDS011;27913;42.722;23.268;2023-12-20T12:54:48;83.60;;;29.27;;
42246;SDS011;27913;42.722;23.268;2023-12-20T12:57:14;110.90;;;41.42;;
42246;SDS011;27913;42.722;23.268;2023-12-20T12:59:41;94.60;;;37.70;;
42246;SDS011;27913;42.722;23.268;2023-12-20T13:02:07;82.35;;;26.70;;
42246;SDS011;27913;42.722;23.268;2023-12-20T13:04:35;98.93;;;35.13;;
42246;SDS011;27913;42.722;23.268;2023-12-20T13:07:01;72.25;;;26.83;;
42246;SDS011;27913;42.722;23.268;2023-12-20T13:09:27;114.30;;;41.13;;
42246;SDS011;27913;42.722;23.268;2023-12-20T13:11:53;75.88;;;31.42;;
42246;SDS011;27913;42.722;23.268;2023-12-20T13:14:18;93.80;;;33.45;;
42246;SDS011;27913;42.722;23.268;2023-12-20T13:16:44;79.05;;;26.50;;
42246;SDS011;27913;42.722;23.268;2023-12-20T13:19:10;85.25;;;29.42;;
42246;SDS011;27913;42.722;23.268;2023-12-20T13:21:36;72.05;;;25.83;;
42246;SDS011;27913;42.722;23.268;2023-12-20T13:24:02;97.68;;;32.83;;
42246;SDS011;27913;42.722;23.268;2023-12-20T13:26:28;84.40;;;24.95;;
42246;SDS011;27913;42.722;23.268;2023-12-20T13:28:54;68.00;;;24.10;;
42246;SDS011;27913;42.722;23.268;2023-12-20T13:31:20;83.07;;;25.27;;
42246;SDS011;27913;42.722;23.268;2023-12-20T13:33:46;53.47;;;19.05;;
42246;SDS011;27913;42.722;23.268;2023-12-20T13:36:13;95.65;;;31.88;;
42246;SDS011;27913;42.722;23.268;2023-12-20T13:38:39;107.93;;;35.72;;
42246;SDS011;27913;42.722;23.268;2023-12-20T13:41:04;101.32;;;33.78;;
42246;SDS011;27913;42.722;23.268;2023-12-20T13:43:30;89.25;;;25.77;;
42246;SDS011;27913;42.722;23.268;2023-12-20T13:45:57;93.63;;;33.30;;
42246;SDS011;27913;42.722;23.268;2023-12-20T13:48:24;89.25;;;29.73;;
42246;SDS011;27913;42.722;23.268;2023-12-20T13:50:49;75.90;;;28.00;;
42246;SDS011;27913;42.722;23.268;2023-12-20T13:53:15;77.85;;;28.90;;
42246;SDS011;27913;42.722;23.268;2023-12-20T13:55:41;102.10;;;33.78;;
42246;SDS011;27913;42.722;23.268;2023-12-20T13:58:07;79.30;;;29.85;;
42246;SDS011;27913;42.722;23.268;2023-12-20T14:00:34;83.68;;;29.67;;
42246;SDS011;27913;42.722;23.268;2023-12-20T14:03:01;84.05;;;24.05;;
42246;SDS011;27913;42.722;23.268;2023-12-20T14:05:28;90.18;;;31.23;;
42246;SDS011;27913;42.722;23.268;2023-12-20T14:07:54;106.43;;;32.63;;
42246;SDS011;27913;42.722;23.268;2023-12-20T14:10:22;108.47;;;33.67;;
42246;SDS011;27913;42.722;23.268;2023-12-20T14:12:50;90.20;;;31.17;;
42246;SDS011;27913;42.722;23.268;2023-12-20T14:15:16;114.75;;;36.17;;
42246;SDS011;27913;42.722;23.268;2023-12-20T14:17:41;93.95;;;30.52;;
42246;SDS011;27913;42.722;23.268;2023-12-20T14:20:07;86.60;;;27.98;;
42246;SDS011;27913;42.722;23.268;2023-12-20T14:22:34;56.80;;;20.45;;
42246;SDS011;27913;42.722;23.268;2023-12-20T14:25:00;44.47;;;20.17;;
42246;SDS011;27913;42.722;23.268;2023-12-20T14:27:26;107.07;;;36.50;;